createdAt,value
2019-04-30T00:00:11.259Z,99.99
2019-04-30T00:01:20.234Z,99.99
2019-04-30T00:02:11.333Z,99.99
2019-04-30T00:03:15.836Z,99.99
2019-04-30T00:04:11.310Z,99.99
2019-04-30T00:05:15.052Z,99.99
2019-04-30T00:06:11.299Z,99.99
2019-04-30T00:07:15.408Z,99.99
2019-04-30T00:08:11.309Z,99.99
2019-04-30T00:09:18.865Z,99.99
2019-04-30T00:10:11.334Z,99.99
2019-04-30T00:11:15.825Z,99.99
2019-04-30T00:12:11.276Z,99.99
2019-04-30T00:13:15.376Z,99.99
2019-04-30T00:14:11.287Z,99.99
2019-04-30T00:15:16.050Z,99.99
2019-04-30T00:16:11.328Z,99.99
2019-04-30T00:17:15.732Z,99.99
2019-04-30T00:18:11.292Z,99.99
2019-04-30T00:19:15.633Z,99.99
2019-04-30T00:20:11.312Z,99.99
2019-04-30T00:21:14.993Z,99.99
2019-04-30T00:22:11.341Z,99.99
2019-04-30T00:23:11.330Z,99.99
2019-04-30T00:24:12.952Z,99.99
2019-04-30T00:25:11.333Z,99.99
2019-04-30T00:26:13.122Z,99.99
2019-04-30T00:27:11.296Z,99.99
2019-04-30T00:28:11.527Z,99.99
2019-04-30T00:29:11.325Z,99.99
2019-04-30T00:30:11.818Z,99.99
2019-04-30T00:31:11.323Z,99.99
2019-04-30T00:32:11.320Z,99.99
2019-04-30T00:33:15.105Z,99.99
2019-04-30T00:34:11.318Z,99.99
2019-04-30T00:35:16.049Z,99.99
2019-04-30T00:36:11.333Z,99.99
2019-04-30T00:37:18.742Z,99.99
2019-04-30T00:38:11.345Z,99.99
2019-04-30T00:39:16.686Z,99.99
2019-04-30T00:40:11.312Z,99.99
2019-04-30T00:41:12.895Z,99.99
2019-04-30T00:42:11.362Z,99.99
2019-04-30T00:43:11.763Z,99.99
2019-04-30T00:44:11.389Z,99.99
2019-04-30T00:45:12.661Z,99.99
2019-04-30T00:46:11.373Z,99.99
2019-04-30T00:47:11.326Z,99.99
2019-04-30T00:48:11.355Z,99.99
2019-04-30T00:49:23.053Z,99.99
2019-04-30T00:50:11.360Z,99.99
2019-04-30T00:51:21.651Z,99.99
2019-04-30T00:52:11.374Z,99.99
2019-04-30T00:53:16.610Z,99.99
2019-04-30T00:54:11.344Z,99.99
2019-04-30T00:55:11.919Z,99.99
2019-04-30T00:56:11.379Z,99.99
2019-04-30T00:57:11.344Z,99.99
2019-04-30T00:58:11.386Z,99.99
2019-04-30T00:59:14.809Z,99.99
2019-04-30T01:00:11.339Z,99.99
2019-04-30T01:01:11.345Z,99.99
2019-04-30T01:02:11.417Z,99.99
2019-04-30T01:03:12.156Z,99.99
2019-04-30T01:04:11.329Z,99.99
2019-04-30T01:05:11.803Z,99.99
2019-04-30T01:06:11.377Z,99.99
2019-04-30T01:07:11.427Z,99.99
2019-04-30T01:08:11.391Z,99.99
2019-04-30T01:09:11.416Z,99.99
2019-04-30T01:10:11.405Z,99.99
2019-04-30T01:11:12.290Z,99.99
2019-04-30T01:12:11.372Z,99.99
2019-04-30T01:13:14.658Z,99.99
2019-04-30T01:14:12.463Z,99.99
2019-04-30T01:15:15.825Z,99.99
2019-04-30T01:16:12.569Z,99.99
2019-04-30T01:17:14.876Z,99.99
2019-04-30T01:18:11.969Z,99.99
2019-04-30T01:19:29.114Z,99.99
2019-04-30T01:20:12.145Z,99.99
2019-04-30T01:21:13.933Z,99.99
2019-04-30T01:22:11.718Z,99.99
2019-04-30T01:23:13.954Z,99.99
2019-04-30T01:24:11.671Z,99.99
2019-04-30T01:25:16.095Z,99.99
2019-04-30T01:26:11.478Z,99.99
2019-04-30T01:27:13.327Z,99.99
2019-04-30T01:28:16.199Z,99.99
2019-04-30T01:29:12.926Z,99.99
2019-04-30T01:30:13.216Z,99.99
2019-04-30T01:31:11.710Z,99.99
2019-04-30T01:32:17.279Z,99.99
2019-04-30T01:33:11.810Z,99.99
2019-04-30T01:34:15.435Z,99.99
2019-04-30T01:35:11.598Z,99.99
2019-04-30T01:36:15.944Z,99.99
2019-04-30T01:37:11.456Z,99.99
2019-04-30T01:38:15.322Z,99.99
2019-04-30T01:39:12.115Z,99.99
2019-04-30T01:40:16.361Z,99.99
2019-04-30T01:41:12.177Z,99.99
2019-04-30T01:42:14.056Z,99.99
2019-04-30T01:43:11.767Z,99.99
2019-04-30T01:44:14.745Z,99.99
2019-04-30T01:45:11.417Z,99.99
2019-04-30T01:46:16.375Z,99.99
2019-04-30T01:47:11.637Z,99.99
2019-04-30T01:48:15.162Z,99.99
2019-04-30T01:49:11.420Z,99.99
2019-04-30T01:50:11.923Z,99.99
2019-04-30T01:51:13.263Z,99.99
2019-04-30T01:52:12.594Z,99.99
2019-04-30T01:53:15.647Z,99.99
2019-04-30T01:54:13.638Z,99.99
2019-04-30T01:55:11.528Z,99.99
2019-04-30T01:56:11.780Z,99.99
2019-04-30T01:57:13.425Z,99.99
2019-04-30T01:58:11.439Z,99.99
2019-04-30T01:59:11.839Z,99.99
2019-04-30T02:00:12.394Z,99.99
2019-04-30T02:01:11.751Z,99.99
2019-04-30T02:02:11.453Z,99.99
2019-04-30T02:03:13.916Z,99.99
2019-04-30T02:04:11.503Z,99.99
2019-04-30T02:05:11.630Z,99.99
2019-04-30T02:06:11.784Z,99.99
2019-04-30T02:07:11.666Z,99.99
2019-04-30T02:08:11.424Z,99.99
2019-04-30T02:09:11.794Z,99.99
2019-04-30T02:10:11.466Z,99.99
2019-04-30T02:11:11.737Z,99.99
2019-04-30T02:12:12.010Z,99.99
2019-04-30T02:13:11.600Z,99.99
2019-04-30T02:14:11.734Z,99.99
2019-04-30T02:15:12.151Z,99.99
2019-04-30T02:16:11.457Z,99.99
2019-04-30T02:17:12.040Z,99.99
2019-04-30T02:18:11.448Z,99.99
2019-04-30T02:19:11.973Z,99.99
2019-04-30T02:20:11.646Z,99.99
2019-04-30T02:21:14.029Z,99.99
2019-04-30T02:22:12.206Z,99.99
2019-04-30T02:23:12.341Z,99.99
2019-04-30T02:24:13.734Z,99.99
2019-04-30T02:25:12.336Z,99.99
2019-04-30T02:26:11.496Z,99.99
2019-04-30T02:27:11.829Z,99.99
2019-04-30T02:28:11.635Z,99.99
2019-04-30T02:29:11.851Z,99.99
2019-04-30T02:30:13.920Z,99.99
2019-04-30T02:31:12.007Z,99.99
2019-04-30T02:32:12.908Z,99.99
2019-04-30T02:33:12.301Z,99.99
2019-04-30T02:34:12.912Z,99.99
2019-04-30T02:35:12.321Z,99.99
2019-04-30T02:36:13.057Z,99.99
2019-04-30T02:37:12.491Z,99.99
2019-04-30T02:38:12.742Z,99.99
2019-04-30T02:39:13.834Z,99.99
2019-04-30T02:40:12.762Z,99.99
2019-04-30T02:41:12.513Z,99.99
2019-04-30T02:42:13.357Z,99.99
2019-04-30T02:43:12.038Z,99.99
2019-04-30T02:44:12.395Z,99.99
2019-04-30T02:45:12.999Z,99.99
2019-04-30T02:46:12.469Z,99.99
2019-04-30T02:47:12.806Z,99.99
2019-04-30T02:48:14.230Z,99.99
2019-04-30T02:49:13.415Z,99.99
2019-04-30T02:50:21.705Z,99.99
2019-04-30T02:51:12.832Z,99.99
2019-04-30T02:52:12.001Z,99.99
2019-04-30T02:53:12.369Z,99.99
2019-04-30T02:54:12.544Z,99.99
2019-04-30T02:55:12.144Z,99.99
2019-04-30T02:56:12.612Z,99.99
2019-04-30T02:57:14.158Z,99.99
2019-04-30T02:58:12.293Z,99.99
2019-04-30T02:59:13.081Z,99.99
2019-04-30T03:00:12.762Z,99.99
2019-04-30T03:01:12.974Z,99.99
2019-04-30T03:02:14.236Z,99.99
2019-04-30T03:03:12.987Z,99.99
2019-04-30T03:04:12.607Z,99.99
2019-04-30T03:05:15.625Z,99.99
2019-04-30T03:06:14.193Z,99.99
2019-04-30T03:07:12.437Z,99.99
2019-04-30T03:08:12.357Z,99.99
2019-04-30T03:09:13.185Z,99.99
2019-04-30T03:10:12.789Z,99.99
2019-04-30T03:11:12.424Z,99.99
2019-04-30T03:12:11.568Z,99.99
2019-04-30T03:13:12.516Z,99.99
2019-04-30T03:14:13.120Z,99.99
2019-04-30T03:15:12.665Z,99.99
2019-04-30T03:16:12.150Z,99.99
2019-04-30T03:17:12.938Z,99.99
2019-04-30T03:18:12.614Z,99.99
2019-04-30T03:19:12.604Z,99.99
2019-04-30T03:20:27.665Z,99.99
2019-04-30T03:21:12.406Z,99.99
2019-04-30T03:22:12.953Z,99.99
2019-04-30T03:23:12.627Z,99.99
2019-04-30T03:24:13.512Z,99.99
2019-04-30T03:25:12.168Z,99.99
2019-04-30T03:26:15.292Z,99.99
2019-04-30T03:27:12.469Z,99.99
2019-04-30T03:28:12.454Z,99.99
2019-04-30T03:29:14.124Z,99.99
2019-04-30T03:30:14.573Z,99.99
2019-04-30T03:31:15.220Z,99.99
2019-04-30T03:32:16.398Z,99.99
2019-04-30T03:33:15.659Z,99.99
2019-04-30T03:34:25.403Z,99.99
2019-04-30T03:35:15.806Z,99.99
2019-04-30T03:36:15.462Z,99.99
2019-04-30T03:37:12.672Z,99.99
2019-04-30T03:38:12.374Z,99.99
2019-04-30T03:39:13.690Z,99.99
2019-04-30T03:40:15.641Z,99.99
2019-04-30T03:41:12.438Z,99.99
2019-04-30T03:42:12.730Z,99.99
2019-04-30T03:43:13.065Z,99.99
2019-04-30T03:44:25.841Z,99.99
2019-04-30T03:45:12.953Z,99.99
2019-04-30T03:46:12.861Z,99.99
2019-04-30T03:47:13.726Z,99.99
2019-04-30T03:48:12.847Z,99.99
2019-04-30T03:49:15.353Z,99.99
2019-04-30T03:50:12.010Z,99.99
2019-04-30T03:51:13.318Z,99.99
2019-04-30T03:52:15.332Z,99.99
2019-04-30T03:53:13.242Z,99.99
2019-04-30T03:54:13.093Z,99.99
2019-04-30T03:55:12.038Z,99.99
2019-04-30T03:56:12.142Z,99.99
2019-04-30T03:57:13.893Z,99.99
2019-04-30T03:58:11.995Z,99.99
2019-04-30T03:59:13.265Z,99.99
2019-04-30T04:00:12.106Z,99.99
2019-04-30T04:01:12.908Z,99.99
2019-04-30T04:02:15.271Z,99.99
2019-04-30T04:03:12.880Z,99.99
2019-04-30T04:04:12.828Z,99.99
2019-04-30T04:05:12.962Z,99.99
2019-04-30T04:06:12.128Z,99.99
2019-04-30T04:07:12.929Z,99.99
2019-04-30T04:08:12.283Z,99.99
2019-04-30T04:09:13.018Z,99.99
2019-04-30T04:10:12.852Z,99.99
2019-04-30T04:11:12.794Z,99.99
2019-04-30T04:12:14.556Z,99.99
2019-04-30T04:13:13.072Z,99.99
2019-04-30T04:14:12.017Z,99.99
2019-04-30T04:15:13.184Z,99.99
2019-04-30T04:16:12.371Z,99.99
2019-04-30T04:17:12.521Z,99.99
2019-04-30T04:18:13.380Z,99.99
2019-04-30T04:19:12.252Z,99.99
2019-04-30T04:20:13.409Z,99.99
2019-04-30T04:21:20.552Z,99.99
2019-04-30T04:22:14.747Z,99.99
2019-04-30T04:23:12.428Z,99.99
2019-04-30T04:24:13.317Z,99.99
2019-04-30T04:25:15.430Z,99.99
2019-04-30T04:26:12.182Z,99.99
2019-04-30T04:27:12.416Z,99.99
2019-04-30T04:28:12.828Z,99.99
2019-04-30T04:29:15.087Z,99.99
2019-04-30T04:30:13.337Z,99.99
2019-04-30T04:31:12.252Z,99.99
2019-04-30T04:32:13.822Z,99.99
2019-04-30T04:33:12.943Z,99.99
2019-04-30T04:34:12.046Z,99.99
2019-04-30T04:35:15.126Z,99.99
2019-04-30T04:36:11.937Z,99.99
2019-04-30T04:37:12.825Z,99.99
2019-04-30T04:38:15.251Z,99.99
2019-04-30T04:39:12.559Z,99.99
2019-04-30T04:40:12.072Z,99.99
2019-04-30T04:41:13.056Z,99.99
2019-04-30T04:42:12.830Z,99.99
2019-04-30T04:43:13.111Z,99.99
2019-04-30T04:44:15.369Z,99.99
2019-04-30T04:45:12.662Z,99.99
2019-04-30T04:46:11.989Z,99.99
2019-04-30T04:47:16.181Z,99.99
2019-04-30T04:48:12.283Z,99.99
2019-04-30T04:49:11.777Z,99.99
2019-04-30T04:50:13.175Z,99.99
2019-04-30T04:51:37.902Z,99.99
2019-04-30T04:52:12.994Z,99.99
2019-04-30T04:53:14.293Z,99.99
2019-04-30T04:54:13.069Z,99.99
2019-04-30T04:55:12.731Z,99.99
2019-04-30T04:56:12.837Z,99.99
2019-04-30T04:57:22.474Z,99.99
2019-04-30T04:58:15.140Z,99.99
2019-04-30T04:59:13.043Z,99.99
2019-04-30T05:00:13.288Z,99.99
2019-04-30T05:01:14.385Z,99.99
2019-04-30T05:02:12.531Z,99.99
2019-04-30T05:03:12.161Z,99.99
2019-04-30T05:04:14.490Z,99.99
2019-04-30T05:05:12.404Z,99.99
2019-04-30T05:06:14.355Z,99.99
2019-04-30T05:07:12.091Z,99.99
2019-04-30T05:08:11.730Z,99.99
2019-04-30T05:09:12.392Z,99.99
2019-04-30T05:10:12.063Z,99.99
2019-04-30T05:11:12.226Z,99.99
2019-04-30T05:12:11.735Z,99.99
2019-04-30T05:13:11.881Z,99.99
2019-04-30T05:14:13.707Z,99.99
2019-04-30T05:15:12.260Z,99.99
2019-04-30T05:16:11.959Z,99.99
2019-04-30T05:17:12.945Z,99.99
2019-04-30T05:18:11.851Z,99.99
2019-04-30T05:19:12.047Z,99.99
2019-04-30T05:20:12.708Z,99.99
2019-04-30T05:21:11.767Z,99.99
2019-04-30T05:22:11.905Z,99.99
2019-04-30T05:23:12.148Z,99.99
2019-04-30T05:24:11.754Z,99.99
2019-04-30T05:25:11.760Z,99.99
2019-04-30T05:26:13.771Z,99.99
2019-04-30T05:27:12.465Z,99.99
2019-04-30T05:28:11.778Z,99.99
2019-04-30T05:29:12.195Z,99.99
2019-04-30T05:30:14.434Z,99.99
2019-04-30T05:31:11.801Z,99.99
2019-04-30T05:32:12.478Z,99.99
2019-04-30T05:33:11.790Z,99.99
2019-04-30T05:34:12.925Z,99.99
2019-04-30T05:35:12.322Z,99.99
2019-04-30T05:36:12.037Z,99.99
2019-04-30T05:37:12.883Z,99.99
2019-04-30T05:38:12.029Z,99.99
2019-04-30T05:39:11.834Z,99.99
2019-04-30T05:40:11.986Z,99.99
2019-04-30T05:41:12.051Z,99.99
2019-04-30T05:42:12.183Z,99.99
2019-04-30T05:43:14.048Z,99.99
2019-04-30T05:44:11.825Z,99.99
2019-04-30T05:45:12.173Z,99.99
2019-04-30T05:46:14.127Z,99.99
2019-04-30T05:47:12.029Z,99.99
2019-04-30T05:48:11.789Z,99.99
2019-04-30T05:49:11.774Z,99.99
2019-04-30T05:50:11.950Z,99.99
2019-04-30T05:51:11.804Z,99.99
2019-04-30T05:52:20.025Z,99.99
2019-04-30T05:53:11.807Z,99.99
2019-04-30T05:54:11.877Z,99.99
2019-04-30T05:55:11.804Z,99.99
2019-04-30T05:56:12.174Z,99.99
2019-04-30T05:57:12.200Z,99.99
2019-04-30T05:58:12.155Z,99.99
2019-04-30T05:59:11.850Z,99.99
2019-04-30T06:00:12.819Z,99.99
2019-04-30T06:01:12.454Z,99.99
2019-04-30T06:02:14.174Z,99.99
2019-04-30T06:03:12.217Z,99.99
2019-04-30T06:04:12.246Z,99.99
2019-04-30T06:05:11.842Z,99.99
2019-04-30T06:06:14.144Z,99.99
2019-04-30T06:07:11.816Z,99.99
2019-04-30T06:08:12.012Z,99.99
2019-04-30T06:09:30.319Z,99.99
2019-04-30T06:10:11.962Z,99.99
2019-04-30T06:11:12.084Z,99.99
2019-04-30T06:12:14.046Z,99.99
2019-04-30T06:13:12.408Z,99.99
2019-04-30T06:14:11.841Z,99.99
2019-04-30T06:15:14.577Z,99.99
2019-04-30T06:16:11.818Z,99.99
2019-04-30T06:17:12.484Z,99.99
2019-04-30T06:18:16.275Z,99.99
2019-04-30T06:19:11.855Z,99.99
2019-04-30T06:20:21.113Z,99.99
2019-04-30T06:21:11.901Z,99.99
2019-04-30T06:22:21.792Z,99.99
2019-04-30T06:23:12.336Z,99.99
2019-04-30T06:24:13.367Z,99.99
2019-04-30T06:25:13.549Z,99.99
2019-04-30T06:26:15.434Z,99.99
2019-04-30T06:27:13.573Z,99.99
2019-04-30T06:28:12.370Z,99.99
2019-04-30T06:29:11.909Z,99.99
2019-04-30T06:30:14.553Z,99.99
2019-04-30T06:31:11.819Z,99.99
2019-04-30T06:32:11.950Z,99.99
2019-04-30T06:33:14.490Z,99.99
2019-04-30T06:34:11.863Z,99.99
2019-04-30T06:35:11.894Z,99.99
2019-04-30T06:36:13.801Z,99.99
2019-04-30T06:37:12.428Z,99.99
2019-04-30T06:38:11.869Z,99.99
2019-04-30T06:39:11.899Z,99.99
2019-04-30T06:40:14.380Z,99.99
2019-04-30T06:41:11.908Z,99.99
2019-04-30T06:42:15.619Z,99.99
2019-04-30T06:43:11.944Z,99.99
2019-04-30T06:44:12.336Z,99.99
2019-04-30T06:45:11.933Z,99.99
2019-04-30T06:46:11.897Z,99.99
2019-04-30T06:47:11.864Z,99.99
2019-04-30T06:48:11.951Z,99.99
2019-04-30T06:49:12.206Z,99.99
2019-04-30T06:50:12.395Z,99.99
2019-04-30T06:51:12.012Z,99.99
2019-04-30T06:52:23.811Z,99.99
2019-04-30T06:53:12.177Z,99.8
2019-04-30T06:54:13.708Z,99.71
2019-04-30T06:55:12.508Z,97.94
2019-04-30T06:56:11.890Z,97.13
2019-04-30T06:57:14.741Z,96.89
2019-04-30T06:58:20.396Z,97.52
2019-04-30T06:59:11.923Z,97.89
2019-04-30T07:00:12.534Z,96.94
2019-04-30T07:01:12.187Z,97.71
2019-04-30T07:02:11.961Z,99.04
2019-04-30T07:03:12.475Z,98.66
2019-04-30T07:04:13.103Z,99.04
2019-04-30T07:05:12.855Z,97.94
2019-04-30T07:06:11.906Z,96.42
2019-04-30T07:07:14.240Z,96.03
2019-04-30T07:08:14.750Z,95.32
2019-04-30T07:09:11.931Z,95.22
2019-04-30T07:10:20.458Z,96.42
2019-04-30T07:11:13.948Z,96.61
2019-04-30T07:12:22.808Z,97.85
2019-04-30T07:13:11.911Z,97.85
2019-04-30T07:14:12.384Z,98.9
2019-04-30T07:15:13.630Z,99.8
2019-04-30T07:16:13.656Z,99.9
2019-04-30T07:17:12.267Z,99.8
2019-04-30T07:18:11.929Z,99.95
2019-04-30T07:19:12.035Z,99.99
2019-04-30T07:20:13.126Z,99.99
2019-04-30T07:21:11.989Z,99.99
2019-04-30T07:22:11.923Z,99.99
2019-04-30T07:23:12.052Z,99.99
2019-04-30T07:24:12.153Z,99.99
2019-04-30T07:25:12.203Z,99.99
2019-04-30T07:26:19.582Z,99.99
2019-04-30T07:27:12.035Z,99.99
2019-04-30T07:28:11.920Z,99.99
2019-04-30T07:29:12.484Z,99.99
2019-04-30T07:30:12.707Z,99.99
2019-04-30T07:31:19.096Z,99.99
2019-04-30T07:32:12.125Z,99.99
2019-04-30T07:33:12.260Z,99.99
2019-04-30T07:34:12.064Z,99.99
2019-04-30T07:35:12.248Z,99.99
2019-04-30T07:36:12.417Z,99.99
2019-04-30T07:37:23.988Z,99.99
2019-04-30T07:38:12.061Z,99.99
2019-04-30T07:39:12.755Z,99.99
2019-04-30T07:40:11.954Z,99.99
2019-04-30T07:41:12.245Z,99.99
2019-04-30T07:42:11.985Z,99.99
2019-04-30T07:43:12.007Z,99.99
2019-04-30T07:44:30.872Z,99.99
2019-04-30T07:45:12.421Z,99.99
2019-04-30T07:46:12.301Z,99.99
2019-04-30T07:47:12.356Z,99.99
2019-04-30T07:48:12.106Z,99.99
2019-04-30T07:52:55.100Z,98.9
2019-04-30T07:53:28.141Z,98.99
2019-04-30T07:54:29.809Z,98.8
2019-04-30T07:55:29.483Z,99.89
2019-04-30T07:56:37.426Z,99.99
2019-04-30T07:57:29.127Z,99.99
2019-04-30T07:58:29.801Z,99.6
2019-04-30T07:59:29.852Z,99.99
2019-04-30T08:00:30.873Z,99.56
2019-04-30T08:01:29.466Z,99.99
2019-04-30T08:02:29.694Z,99.08
2019-04-30T08:03:30.131Z,98.8
2019-04-30T08:04:29.238Z,98.47
2019-04-30T08:05:29.707Z,97.99
2019-04-30T08:06:30.557Z,98.08
2019-04-30T08:07:29.720Z,96.56
2019-04-30T08:08:30.267Z,96.89
2019-04-30T08:09:38.573Z,96.13
2019-04-30T08:10:29.517Z,96.03
2019-04-30T08:11:29.378Z,96.46
2019-04-30T08:12:38.744Z,95.36
2019-04-30T08:13:31.684Z,94.89
2019-04-30T08:14:28.785Z,92.79
2019-04-30T08:15:29.530Z,93.65
2019-04-30T08:16:28.733Z,94.55
2019-04-30T08:17:28.892Z,94.07
2019-04-30T08:18:29.449Z,94.07
2019-04-30T08:19:28.678Z,93.79
2019-04-30T08:20:29.526Z,93.41
2019-04-30T08:21:28.752Z,93.55
2019-04-30T08:22:40.717Z,93.17
2019-04-30T08:23:39.525Z,93.36
2019-04-30T08:24:29.162Z,93.65
2019-04-30T08:25:29.042Z,94.03
2019-04-30T08:26:28.638Z,94.46
2019-04-30T08:27:29.588Z,95.98
2019-04-30T08:28:29.990Z,96.08
2019-04-30T08:29:29.451Z,96.08
2019-04-30T08:30:30.079Z,96.37
2019-04-30T08:31:29.178Z,95.98
2019-04-30T08:32:28.923Z,95.36
2019-04-30T08:33:29.170Z,95.65
2019-04-30T08:34:29.205Z,95.22
2019-04-30T08:35:29.618Z,95.22
2019-04-30T08:36:29.545Z,95.51
2019-04-30T08:37:28.818Z,95.32
2019-04-30T08:38:29.856Z,95.61
2019-04-30T08:39:29.429Z,96.27
2019-04-30T08:40:29.504Z,95.51
2019-04-30T08:41:29.209Z,94.98
2019-04-30T08:42:37.786Z,95.36
2019-04-30T08:43:29.189Z,94.7
2019-04-30T08:44:29.418Z,94.6
2019-04-30T08:45:30.931Z,94.74
2019-04-30T08:46:28.672Z,96.08
2019-04-30T08:47:29.076Z,95.22
2019-04-30T08:48:41.867Z,95.32
2019-04-30T08:49:30.364Z,93.6
2019-04-30T08:50:29.500Z,93.07
2019-04-30T08:51:28.770Z,93.07
2019-04-30T08:52:35.988Z,93.07
2019-04-30T08:53:33.817Z,92.11
2019-04-30T08:54:29.473Z,91.74
2019-04-30T08:55:30.292Z,91.55
2019-04-30T08:56:29.509Z,91.59
2019-04-30T08:57:29.397Z,91.88
2019-04-30T08:58:29.151Z,91.5
2019-04-30T08:59:29.414Z,91.64
2019-04-30T09:00:29.668Z,92.11
2019-04-30T09:01:29.362Z,91.02
2019-04-30T09:02:28.950Z,90.34
2019-04-30T09:03:29.598Z,91.16
2019-04-30T09:04:29.036Z,91.16
2019-04-30T09:05:31.284Z,90.97
2019-04-30T09:06:28.953Z,90.78
2019-04-30T09:07:29.661Z,91.06
2019-04-30T09:08:29.406Z,92.11
2019-04-30T09:09:29.527Z,91.45
2019-04-30T09:10:29.375Z,91.3
2019-04-30T09:11:49.768Z,91.4
2019-04-30T09:12:29.787Z,91.3
2019-04-30T09:13:28.635Z,90.16
2019-04-30T09:14:29.682Z,89.78
2019-04-30T09:15:29.029Z,90.83
2019-04-30T09:16:29.456Z,91.02
2019-04-30T09:17:29.637Z,91.45
2019-04-30T09:18:29.137Z,91.88
2019-04-30T09:19:29.727Z,92.5
2019-04-30T09:20:29.125Z,92.64
2019-04-30T09:21:29.763Z,92.16
2019-04-30T09:22:39.332Z,92.64
2019-04-30T09:23:42.568Z,92.69
2019-04-30T09:24:30.531Z,91.45
2019-04-30T09:25:28.656Z,92.5
2019-04-30T09:26:29.014Z,90.78
2019-04-30T09:27:29.564Z,91.2
2019-04-30T09:28:29.429Z,91.21
2019-04-30T09:29:29.239Z,90.88
2019-04-30T09:30:29.686Z,91.45
2019-04-30T09:31:29.556Z,91.16
2019-04-30T09:32:29.079Z,90.97
2019-04-30T09:33:29.394Z,91.25
2019-04-30T09:34:29.041Z,91.68
2019-04-30T09:35:30.062Z,90.1
2019-04-30T09:36:29.195Z,89.62
2019-04-30T09:37:27.986Z,87.71
2019-04-30T09:38:28.995Z,88
2019-04-30T09:39:29.518Z,88.71
2019-04-30T09:40:30.283Z,87.76
2019-04-30T09:41:28.747Z,87.03
2019-04-30T09:42:29.562Z,86.46
2019-04-30T09:43:28.587Z,85.93
2019-04-30T09:44:30.360Z,84.78
2019-04-30T09:45:28.536Z,84.34
2019-04-30T09:46:30.150Z,84.53
2019-04-30T09:47:29.527Z,83.95
2019-04-30T09:48:30.147Z,84.34
2019-04-30T09:49:29.385Z,84.11
2019-04-30T09:50:28.797Z,84.06
2019-04-30T09:51:30.376Z,84.39
2019-04-30T09:52:29.925Z,85.02
2019-04-30T09:53:29.604Z,84.83
2019-04-30T09:54:28.835Z,85.08
2019-04-30T09:55:29.024Z,85.6
2019-04-30T09:56:29.386Z,85.41
2019-04-30T09:57:28.976Z,85.69
2019-04-30T09:58:29.471Z,86.04
2019-04-30T09:59:29.087Z,85.41
2019-04-30T10:00:29.440Z,84.97
2019-04-30T10:01:27.944Z,84.68
2019-04-30T10:02:29.043Z,85.25
2019-04-30T10:03:30.600Z,85.06
2019-04-30T10:04:30.122Z,84.01
2019-04-30T10:05:29.193Z,84.44
2019-04-30T10:06:41.640Z,84.39
2019-04-30T10:07:29.335Z,84.83
2019-04-30T10:08:30.566Z,84.88
2019-04-30T10:09:29.313Z,83.25
2019-04-30T10:10:28.892Z,82.48
2019-04-30T10:11:27.991Z,82.67
2019-04-30T10:12:29.374Z,83
2019-04-30T10:13:27.968Z,82.81
2019-04-30T10:14:27.950Z,82.14
2019-04-30T10:15:28.914Z,82.48
2019-04-30T10:16:29.608Z,82.23
2019-04-30T10:17:28.459Z,81.95
2019-04-30T10:18:28.017Z,82.57
2019-04-30T10:19:29.221Z,83.58
2019-04-30T10:20:28.003Z,82.75
2019-04-30T10:21:28.985Z,82.21
2019-04-30T10:22:27.981Z,82.03
2019-04-30T10:23:27.986Z,81.66
2019-04-30T10:24:29.436Z,80.64
2019-04-30T10:25:28.492Z,80.74
2019-04-30T10:26:27.985Z,81.37
2019-04-30T10:27:29.342Z,81.08
2019-04-30T10:28:28.016Z,80.74
2019-04-30T10:29:28.068Z,81.51
2019-04-30T10:30:29.183Z,82.08
2019-04-30T10:31:29.301Z,80.99
2019-04-30T10:32:29.747Z,81.22
2019-04-30T10:33:28.660Z,81.54
2019-04-30T10:34:28.159Z,81.07
2019-04-30T10:35:28.548Z,81.12
2019-04-30T10:36:29.512Z,81.7
2019-04-30T10:37:28.715Z,81.79
2019-04-30T10:38:29.309Z,80.89
2019-04-30T10:39:29.672Z,82.57
2019-04-30T10:40:28.687Z,82.62
2019-04-30T10:41:28.733Z,83.19
2019-04-30T10:42:28.835Z,82.52
2019-04-30T10:43:29.040Z,82
2019-04-30T10:44:29.686Z,82.29
2019-04-30T10:45:28.766Z,82.96
2019-04-30T10:46:28.031Z,82.96
2019-04-30T10:47:29.351Z,83.39
2019-04-30T10:48:28.026Z,82.48
2019-04-30T10:49:29.163Z,82.82
2019-04-30T10:50:28.062Z,82.53
2019-04-30T10:51:28.807Z,82.57
2019-04-30T10:52:29.237Z,81.56
2019-04-30T10:53:28.076Z,80.64
2019-04-30T10:54:29.194Z,81.16
2019-04-30T10:55:28.652Z,81.74
2019-04-30T10:56:29.109Z,80.3
2019-04-30T10:57:28.467Z,79.3
2019-04-30T10:58:28.043Z,79.21
2019-04-30T10:59:28.049Z,79.93
2019-04-30T11:00:28.643Z,81.18
2019-04-30T11:01:29.149Z,80.07
2019-04-30T11:02:28.726Z,79.3
2019-04-30T11:03:29.102Z,80.03
2019-04-30T11:04:28.063Z,81.08
2019-04-30T11:05:29.194Z,81.08
2019-04-30T11:06:28.055Z,80.6
2019-04-30T11:07:43.813Z,79.21
2019-04-30T11:08:43.836Z,79.36
2019-04-30T11:09:43.770Z,79.78
2019-04-30T11:10:43.796Z,79.78
2019-04-30T11:11:43.785Z,79.72
2019-04-30T11:12:43.847Z,78.77
2019-04-30T11:13:43.831Z,78.77
2019-04-30T11:14:43.839Z,79.24
2019-04-30T11:15:43.812Z,78.86
2019-04-30T11:16:43.942Z,78.9
2019-04-30T11:17:45.808Z,77.94
2019-04-30T11:18:44.169Z,78.67
2019-04-30T11:19:44.219Z,78.96
2019-04-30T11:20:44.171Z,78.57
2019-04-30T11:21:44.459Z,78.44
2019-04-30T11:22:57.398Z,77.48
2019-04-30T11:23:44.321Z,78.57
2019-04-30T11:25:02.674Z,77.84
2019-04-30T11:25:45.529Z,78.13
2019-04-30T11:26:45.697Z,78.47
2019-04-30T11:27:45.129Z,78.57
2019-04-30T11:28:44.002Z,78.13
2019-04-30T11:29:44.216Z,77.26
2019-04-30T11:30:44.247Z,76.98
2019-04-30T11:31:44.231Z,76.92
2019-04-30T11:32:44.573Z,75.1
2019-04-30T11:33:44.400Z,76.06
2019-04-30T11:34:43.854Z,76.09
2019-04-30T11:35:43.814Z,75.52
2019-04-30T11:36:43.851Z,76.19
2019-04-30T11:37:43.807Z,77.06
2019-04-30T11:38:43.822Z,76.9
2019-04-30T11:39:43.820Z,75.27
2019-04-30T11:40:43.872Z,74.5
2019-04-30T11:41:43.858Z,73.67
2019-04-30T11:42:43.909Z,74.05
2019-04-30T11:43:43.836Z,73
2019-04-30T11:44:43.857Z,72.9
2019-04-30T11:45:43.848Z,72.74
2019-04-30T11:46:43.847Z,73.9
2019-04-30T11:47:55.607Z,72.94
2019-04-30T11:48:43.884Z,73.96
2019-04-30T11:49:43.870Z,72.61
2019-04-30T11:50:43.895Z,72.29
2019-04-30T11:51:43.857Z,72.86
2019-04-30T11:52:43.852Z,74.75
2019-04-30T11:53:43.888Z,74.75
2019-04-30T11:54:54.528Z,74.46
2019-04-30T11:55:43.874Z,75.29
2019-04-30T11:56:43.875Z,74.94
2019-04-30T11:57:43.845Z,74.62
2019-04-30T11:58:43.852Z,75.7
2019-04-30T11:59:43.860Z,74.9
2019-04-30T12:00:43.866Z,74.68
2019-04-30T12:01:43.840Z,75.31
2019-04-30T12:02:43.883Z,74.77
2019-04-30T12:03:43.990Z,75.29
2019-04-30T12:04:43.892Z,74.1
2019-04-30T12:05:43.902Z,75.38
2019-04-30T12:06:43.873Z,75.38
2019-04-30T12:07:44.067Z,74.71
2019-04-30T12:08:43.927Z,75.38
2019-04-30T12:09:44.011Z,76.15
2019-04-30T12:10:43.872Z,75.67
2019-04-30T12:11:43.858Z,76.12
2019-04-30T12:12:43.967Z,76.88
2019-04-30T12:13:43.952Z,77.01
2019-04-30T12:14:43.925Z,74.85
2019-04-30T12:15:43.910Z,74.08
2019-04-30T12:16:43.997Z,73.88
2019-04-30T12:17:43.921Z,73.73
2019-04-30T12:18:43.951Z,72.48
2019-04-30T12:19:43.871Z,73.63
2019-04-30T12:20:43.881Z,73.86
2019-04-30T12:21:44.046Z,72.17
2019-04-30T12:22:43.917Z,72.26
2019-04-30T12:23:44.035Z,71.94
2019-04-30T12:24:43.933Z,71.55
2019-04-30T12:25:44.327Z,72.48
2019-04-30T12:26:43.910Z,72.29
2019-04-30T12:27:43.936Z,72.83
2019-04-30T12:28:43.925Z,72.38
2019-04-30T12:29:43.932Z,72.42
2019-04-30T12:30:43.946Z,72.8
2019-04-30T12:31:43.903Z,70.34
2019-04-30T12:32:43.932Z,71.3
2019-04-30T12:33:43.913Z,70.43
2019-04-30T12:34:43.938Z,69.38
2019-04-30T12:35:43.905Z,69.95
2019-04-30T12:36:43.954Z,69.85
2019-04-30T12:37:43.904Z,70.28
2019-04-30T12:38:43.946Z,70.5
2019-04-30T12:39:43.915Z,70.98
2019-04-30T12:40:43.962Z,72.26
2019-04-30T12:41:43.927Z,71.62
2019-04-30T12:42:43.956Z,70.76
2019-04-30T12:43:43.957Z,70.02
2019-04-30T12:44:43.925Z,70.41
2019-04-30T12:45:43.952Z,70.31
2019-04-30T12:46:43.917Z,70.37
2019-04-30T12:47:43.989Z,70.47
2019-04-30T12:48:43.991Z,69.85
2019-04-30T12:49:43.920Z,69.57
2019-04-30T12:50:43.943Z,69.18
2019-04-30T12:51:50.477Z,70.05
2019-04-30T12:52:44.001Z,69.28
2019-04-30T12:53:43.946Z,69.51
2019-04-30T12:54:43.938Z,69.89
2019-04-30T12:55:43.937Z,69.95
2019-04-30T12:56:43.991Z,70.43
2019-04-30T12:57:55.242Z,69.41